Список аэропортов
Фактическая погода:

25 июня, 11:30
Температура: +17°C (+16.3*)
Ветер: юго-западный 5 м/с
Давление: *754 мм
Без существ. явл.
Время (МСК)Темп. СВетерВлажностьДавлениеОблачностьОсадки
09:00+16ЮЗ, 3 м/с67%1006 гПаоблачносл. дождь
10:00+15Ю, 3 м/с80%1006 гПаоблачнодождь
11:00+16ЮЗ, 4 м/с82%1006 гПаоблачнодождь
12:00+16ЮЗ, 5 м/с77%1006 гПаоблачносл. дождь
13:00+16ЮЗ, 5 м/с80%1006 гПаоблачнодождь
14:00+16ЮЗ, 5 м/с87%1006 гПаоблачнодождь
15:00+18ЮЗ, 6 м/с80%1006 гПас прояснениямисл. дождь
16:00+20ЮЗ, 6 м/с67%1006 гПас прояснениями
17:00+20ЮЗ, 5 м/с66%1006 гПас прояснениями
18:00+20ЮЗ, 5 м/с63%1006 гПас прояснениями
19:00+20ЮЗ, 4 м/с62%1006 гПаясно
20:00+20ЮЗ, 3 м/с67%1006 гПаясно
21:00+18Ю, 2 м/с77%1006 гПас прояснениями
22:00+18Ю, 3 м/с79%1006 гПаоблачно
23:00+17Ю, 3 м/с85%1006 гПаоблачнодождь
26 июня
00:00+17ЮЗ, 4 м/с90%1006 гПаоблачнодождь
01:00+16З, 3 м/с94%1006 гПаоблачно
02:00+16ЮЗ, 4 м/с96%1007 гПаоблачносл. дождь
03:00+16ЮЗ, 3 м/с95%1007 гПаоблачносл. дождь
04:00+16ЮЗ, 4 м/с94%1007 гПаоблачносл. дождь
05:00+15ЮЗ, 3 м/с95%1007 гПамалооблачно
06:00+16ЮЗ, 3 м/с95%1007 гПамалооблачно
07:00+16ЮЗ, 5 м/с90%1007 гПамалооблачно
08:00+18ЮЗ, 4 м/с80%1006 гПамалооблачно
09:00+19ЮЗ, 4 м/с64%1007 гПамалооблачно
10:00+21ЮЗ, 5 м/с56%1006 гПас прояснениями
11:00+22ЮЗ, 5 м/с56%1006 гПас прояснениями
12:00+23ЮЗ, 5 м/с55%1005 гПамалооблачно
13:00+24ЮЗ, 6 м/с53%1005 гПамалооблачно
14:00+25ЮЗ, 6 м/с51%1004 гПаясно
15:00+26Ю, 6 м/с50%1003 гПамалооблачно
16:00+23Ю, 5 м/с72%1002 гПаоблачнодождь
17:00+23Ю, 4 м/с68%1001 гПаоблачно
18:00+24Ю, 7 м/с62%1001 гПаоблачносл. дождь
19:00+25Ю, 6 м/с62%1000 гПас прояснениями
20:00+24Ю, 6 м/с63%999 гПамалооблачно
21:00+23ЮЗ, 7 м/с72%999 гПамалооблачносл. дождь
22:00+21З, 6 м/с89%1000 гПаоблачнодождь
23:00+19З, 5 м/с88%1001 гПаоблачносл. дождь
27 июня
00:00+18З, 5 м/с87%1002 гПаоблачно
01:00+17З, 4 м/с87%1002 гПаясно
02:00+15З, 3 м/с91%1003 гПаясно
03:00+15З, 3 м/с90%1003 гПамалооблачно
04:00+14З, 4 м/с88%1004 гПаоблачно
05:00+14З, 4 м/с85%1005 гПас прояснениями
06:00+15З, 4 м/с81%1006 гПас прояснениями
07:00+16З, 4 м/с71%1006 гПас прояснениями
08:00+17З, 4 м/с67%1006 гПаясно
09:00+18З, 4 м/с63%1006 гПаясно